sensor_id;sensor_type;location;lat;lon;timestamp;temperature;humidity
29663;DHT22;16578;53.266;7.920;2023-07-02T00:00:03;20.30;71.40
29663;DHT22;16578;53.266;7.920;2023-07-02T00:02:30;20.30;71.60
29663;DHT22;16578;53.266;7.920;2023-07-02T00:04:56;20.30;71.60
29663;DHT22;16578;53.266;7.920;2023-07-02T00:07:21;20.30;71.70
29663;DHT22;16578;53.266;7.920;2023-07-02T00:09:47;20.20;71.70
29663;DHT22;16578;53.266;7.920;2023-07-02T00:12:13;20.20;71.90
29663;DHT22;16578;53.266;7.920;2023-07-02T00:14:39;20.20;71.80
29663;DHT22;16578;53.266;7.920;2023-07-02T00:17:04;20.20;71.70
29663;DHT22;16578;53.266;7.920;2023-07-02T00:19:30;20.20;72.60
29663;DHT22;16578;53.266;7.920;2023-07-02T00:21:55;20.20;71.70
29663;DHT22;16578;53.266;7.920;2023-07-02T00:24:21;20.20;71.80
29663;DHT22;16578;53.266;7.920;2023-07-02T00:26:47;20.20;71.80
29663;DHT22;16578;53.266;7.920;2023-07-02T00:29:12;20.10;71.70
29663;DHT22;16578;53.266;7.920;2023-07-02T00:31:38;20.20;71.70
29663;DHT22;16578;53.266;7.920;2023-07-02T00:34:04;20.20;71.70
29663;DHT22;16578;53.266;7.920;2023-07-02T00:36:31;20.10;71.60
29663;DHT22;16578;53.266;7.920;2023-07-02T00:38:57;20.10;71.50
29663;DHT22;16578;53.266;7.920;2023-07-02T00:41:23;20.10;71.40
29663;DHT22;16578;53.266;7.920;2023-07-02T00:43:48;20.10;71.20
29663;DHT22;16578;53.266;7.920;2023-07-02T00:46:15;20.10;71.00
29663;DHT22;16578;53.266;7.920;2023-07-02T00:48:48;20.10;71.80
29663;DHT22;16578;53.266;7.920;2023-07-02T00:51:19;20.10;71.00
29663;DHT22;16578;53.266;7.920;2023-07-02T00:53:47;20.10;71.70
29663;DHT22;16578;53.266;7.920;2023-07-02T00:56:13;20.00;70.60
29663;DHT22;16578;53.266;7.920;2023-07-02T00:58:41;20.00;70.60
29663;DHT22;16578;53.266;7.920;2023-07-02T01:01:23;20.00;70.60
29663;DHT22;16578;53.266;7.920;2023-07-02T01:03:58;20.00;70.60
29663;DHT22;16578;53.266;7.920;2023-07-02T01:06:31;19.90;70.50
29663;DHT22;16578;53.266;7.920;2023-07-02T01:09:02;19.90;70.70
29663;DHT22;16578;53.266;7.920;2023-07-02T01:14:13;19.90;70.50
29663;DHT22;16578;53.266;7.920;2023-07-02T01:16:42;19.90;70.60
29663;DHT22;16578;53.266;7.920;2023-07-02T01:19:11;19.80;70.50
29663;DHT22;16578;53.266;7.920;2023-07-02T01:21:37;19.80;70.80
29663;DHT22;16578;53.266;7.920;2023-07-02T01:24:03;19.80;70.60
29663;DHT22;16578;53.266;7.920;2023-07-02T01:26:30;19.80;70.40
29663;DHT22;16578;53.266;7.920;2023-07-02T01:28:56;19.80;70.30
29663;DHT22;16578;53.266;7.920;2023-07-02T01:31:22;19.80;70.30
29663;DHT22;16578;53.266;7.920;2023-07-02T01:33:51;19.70;70.20
29663;DHT22;16578;53.266;7.920;2023-07-02T01:36:16;19.70;70.30
29663;DHT22;16578;53.266;7.920;2023-07-02T01:38:42;19.70;70.30
29663;DHT22;16578;53.266;7.920;2023-07-02T01:41:07;19.70;70.30
29663;DHT22;16578;53.266;7.920;2023-07-02T01:43:33;19.60;70.40
29663;DHT22;16578;53.266;7.920;2023-07-02T01:45:58;19.60;70.30
29663;DHT22;16578;53.266;7.920;2023-07-02T01:48:25;19.60;70.30
29663;DHT22;16578;53.266;7.920;2023-07-02T01:50:50;19.60;70.20
29663;DHT22;16578;53.266;7.920;2023-07-02T01:53:16;19.60;70.20
29663;DHT22;16578;53.266;7.920;2023-07-02T01:55:41;19.50;70.10
29663;DHT22;16578;53.266;7.920;2023-07-02T01:58:07;19.50;70.00
29663;DHT22;16578;53.266;7.920;2023-07-02T02:00:32;19.50;70.10
29663;DHT22;16578;53.266;7.920;2023-07-02T02:02:58;19.40;70.10
29663;DHT22;16578;53.266;7.920;2023-07-02T02:05:23;19.40;70.20
29663;DHT22;16578;53.266;7.920;2023-07-02T02:07:49;19.40;70.20
29663;DHT22;16578;53.266;7.920;2023-07-02T02:10:14;19.40;70.20
29663;DHT22;16578;53.266;7.920;2023-07-02T02:12:40;19.40;70.10
29663;DHT22;16578;53.266;7.920;2023-07-02T02:15:06;19.30;70.10
29663;DHT22;16578;53.266;7.920;2023-07-02T02:17:32;19.30;70.10
29663;DHT22;16578;53.266;7.920;2023-07-02T02:19:57;19.30;70.10
29663;DHT22;16578;53.266;7.920;2023-07-02T02:22:23;19.30;70.10
29663;DHT22;16578;53.266;7.920;2023-07-02T02:24:48;19.20;70.00
29663;DHT22;16578;53.266;7.920;2023-07-02T02:27:14;19.20;70.00
29663;DHT22;16578;53.266;7.920;2023-07-02T02:29:39;19.20;70.10
29663;DHT22;16578;53.266;7.920;2023-07-02T02:32:05;19.10;70.10
29663;DHT22;16578;53.266;7.920;2023-07-02T02:34:31;19.10;70.00
29663;DHT22;16578;53.266;7.920;2023-07-02T02:36:56;19.10;70.10
29663;DHT22;16578;53.266;7.920;2023-07-02T02:39:22;19.00;70.00
29663;DHT22;16578;53.266;7.920;2023-07-02T02:41:47;19.00;70.00
29663;DHT22;16578;53.266;7.920;2023-07-02T02:44:13;19.00;70.00
29663;DHT22;16578;53.266;7.920;2023-07-02T02:46:38;19.00;70.00
29663;DHT22;16578;53.266;7.920;2023-07-02T02:49:04;18.90;70.10
29663;DHT22;16578;53.266;7.920;2023-07-02T02:51:29;18.90;70.10
29663;DHT22;16578;53.266;7.920;2023-07-02T02:53:55;18.90;70.10
29663;DHT22;16578;53.266;7.920;2023-07-02T02:56:20;18.80;70.10
29663;DHT22;16578;53.266;7.920;2023-07-02T02:58:46;18.90;70.10
29663;DHT22;16578;53.266;7.920;2023-07-02T03:01:12;18.80;70.10
29663;DHT22;16578;53.266;7.920;2023-07-02T03:03:41;18.80;70.10
29663;DHT22;16578;53.266;7.920;2023-07-02T03:06:11;18.80;70.00
29663;DHT22;16578;53.266;7.920;2023-07-02T03:08:36;18.70;70.00
29663;DHT22;16578;53.266;7.920;2023-07-02T03:11:02;18.70;70.10
29663;DHT22;16578;53.266;7.920;2023-07-02T03:13:27;18.70;70.10
29663;DHT22;16578;53.266;7.920;2023-07-02T03:15:53;18.60;70.10
29663;DHT22;16578;53.266;7.920;2023-07-02T03:18:18;18.60;70.10
29663;DHT22;16578;53.266;7.920;2023-07-02T03:20:44;18.60;71.00
29663;DHT22;16578;53.266;7.920;2023-07-02T03:23:09;18.60;70.20
29663;DHT22;16578;53.266;7.920;2023-07-02T03:25:35;18.60;70.30
29663;DHT22;16578;53.266;7.920;2023-07-02T03:28:00;18.60;70.30
29663;DHT22;16578;53.266;7.920;2023-07-02T03:30:26;18.50;70.20
29663;DHT22;16578;53.266;7.920;2023-07-02T03:32:51;18.50;70.20
29663;DHT22;16578;53.266;7.920;2023-07-02T03:35:17;18.50;70.40
29663;DHT22;16578;53.266;7.920;2023-07-02T03:37:43;18.50;70.40
29663;DHT22;16578;53.266;7.920;2023-07-02T03:40:09;18.50;70.40
29663;DHT22;16578;53.266;7.920;2023-07-02T03:42:34;18.50;70.50
29663;DHT22;16578;53.266;7.920;2023-07-02T03:45:00;18.50;70.50
29663;DHT22;16578;53.266;7.920;2023-07-02T03:47:25;18.40;70.50
29663;DHT22;16578;53.266;7.920;2023-07-02T03:49:51;18.40;70.60
29663;DHT22;16578;53.266;7.920;2023-07-02T03:52:17;18.40;70.70
29663;DHT22;16578;53.266;7.920;2023-07-02T03:54:42;18.40;70.70
29663;DHT22;16578;53.266;7.920;2023-07-02T03:57:08;18.40;70.70
29663;DHT22;16578;53.266;7.920;2023-07-02T03:59:34;18.40;70.70
29663;DHT22;16578;53.266;7.920;2023-07-02T04:02:00;18.40;70.70
29663;DHT22;16578;53.266;7.920;2023-07-02T04:04:25;18.40;70.70
29663;DHT22;16578;53.266;7.920;2023-07-02T04:06:51;18.40;70.80
29663;DHT22;16578;53.266;7.920;2023-07-02T04:09:17;18.40;70.80
29663;DHT22;16578;53.266;7.920;2023-07-02T04:11:44;18.40;70.90
29663;DHT22;16578;53.266;7.920;2023-07-02T04:14:09;18.40;71.00
29663;DHT22;16578;53.266;7.920;2023-07-02T04:16:35;18.40;71.00
29663;DHT22;16578;53.266;7.920;2023-07-02T04:19:00;18.40;70.90
29663;DHT22;16578;53.266;7.920;2023-07-02T04:21:26;18.40;70.90
29663;DHT22;16578;53.266;7.920;2023-07-02T04:23:51;18.40;71.10
29663;DHT22;16578;53.266;7.920;2023-07-02T04:26:17;18.40;71.10
29663;DHT22;16578;53.266;7.920;2023-07-02T04:28:43;18.40;71.20
29663;DHT22;16578;53.266;7.920;2023-07-02T04:31:08;18.40;71.30
29663;DHT22;16578;53.266;7.920;2023-07-02T04:33:34;18.40;71.30
29663;DHT22;16578;53.266;7.920;2023-07-02T04:36:05;18.40;71.10
29663;DHT22;16578;53.266;7.920;2023-07-02T04:38:30;18.40;71.10
29663;DHT22;16578;53.266;7.920;2023-07-02T04:40:56;18.40;71.20
29663;DHT22;16578;53.266;7.920;2023-07-02T04:43:33;18.40;71.40
29663;DHT22;16578;53.266;7.920;2023-07-02T04:45:58;18.40;71.40
29663;DHT22;16578;53.266;7.920;2023-07-02T04:48:24;18.40;71.70
29663;DHT22;16578;53.266;7.920;2023-07-02T04:50:50;18.40;71.40
29663;DHT22;16578;53.266;7.920;2023-07-02T04:53:15;18.50;71.50
29663;DHT22;16578;53.266;7.920;2023-07-02T04:55:41;18.50;71.60
29663;DHT22;16578;53.266;7.920;2023-07-02T04:58:07;18.50;71.60
29663;DHT22;16578;53.266;7.920;2023-07-02T05:00:33;18.50;71.60
29663;DHT22;16578;53.266;7.920;2023-07-02T05:02:58;18.60;71.60
29663;DHT22;16578;53.266;7.920;2023-07-02T05:05:24;18.50;71.50
29663;DHT22;16578;53.266;7.920;2023-07-02T05:07:49;18.60;71.60
29663;DHT22;16578;53.266;7.920;2023-07-02T05:10:15;18.60;71.50
29663;DHT22;16578;53.266;7.920;2023-07-02T05:12:40;18.60;71.50
29663;DHT22;16578;53.266;7.920;2023-07-02T05:15:06;18.70;71.50
29663;DHT22;16578;53.266;7.920;2023-07-02T05:17:32;18.70;71.40
29663;DHT22;16578;53.266;7.920;2023-07-02T05:20:00;18.70;71.40
29663;DHT22;16578;53.266;7.920;2023-07-02T05:22:26;18.80;71.50
29663;DHT22;16578;53.266;7.920;2023-07-02T05:24:51;18.80;71.40
29663;DHT22;16578;53.266;7.920;2023-07-02T05:27:17;18.80;71.40
29663;DHT22;16578;53.266;7.920;2023-07-02T05:29:43;18.80;71.40
29663;DHT22;16578;53.266;7.920;2023-07-02T05:32:09;18.90;71.50
29663;DHT22;16578;53.266;7.920;2023-07-02T05:34:34;18.90;71.50
29663;DHT22;16578;53.266;7.920;2023-07-02T05:37:00;19.00;71.50
29663;DHT22;16578;53.266;7.920;2023-07-02T05:39:25;19.00;71.50
29663;DHT22;16578;53.266;7.920;2023-07-02T05:41:51;19.00;71.40
29663;DHT22;16578;53.266;7.920;2023-07-02T05:44:16;19.10;71.40
29663;DHT22;16578;53.266;7.920;2023-07-02T05:46:42;19.10;71.30
29663;DHT22;16578;53.266;7.920;2023-07-02T05:49:08;19.20;71.20
29663;DHT22;16578;53.266;7.920;2023-07-02T05:51:33;19.20;71.30
29663;DHT22;16578;53.266;7.920;2023-07-02T05:53:59;19.30;71.10
29663;DHT22;16578;53.266;7.920;2023-07-02T05:56:24;19.30;70.80
29663;DHT22;16578;53.266;7.920;2023-07-02T05:58:50;19.30;70.50
29663;DHT22;16578;53.266;7.920;2023-07-02T06:01:16;19.40;70.30
29663;DHT22;16578;53.266;7.920;2023-07-02T06:03:42;19.40;70.10
29663;DHT22;16578;53.266;7.920;2023-07-02T06:06:09;19.40;69.80
29663;DHT22;16578;53.266;7.920;2023-07-02T06:08:34;19.40;69.80
29663;DHT22;16578;53.266;7.920;2023-07-02T06:11:00;19.50;69.80
29663;DHT22;16578;53.266;7.920;2023-07-02T06:13:25;19.50;69.80
29663;DHT22;16578;53.266;7.920;2023-07-02T06:15:51;19.60;69.90
29663;DHT22;16578;53.266;7.920;2023-07-02T06:18:17;19.60;69.60
29663;DHT22;16578;53.266;7.920;2023-07-02T06:20:43;19.60;69.60
29663;DHT22;16578;53.266;7.920;2023-07-02T06:23:08;19.60;69.50
29663;DHT22;16578;53.266;7.920;2023-07-02T06:25:34;19.70;69.20
29663;DHT22;16578;53.266;7.920;2023-07-02T06:28:00;19.70;69.20
29663;DHT22;16578;53.266;7.920;2023-07-02T06:30:25;19.70;69.20
29663;DHT22;16578;53.266;7.920;2023-07-02T06:32:51;19.80;69.20
29663;DHT22;16578;53.266;7.920;2023-07-02T06:35:17;19.90;69.10
29663;DHT22;16578;53.266;7.920;2023-07-02T06:37:43;19.90;68.90
29663;DHT22;16578;53.266;7.920;2023-07-02T06:40:09;19.90;68.70
29663;DHT22;16578;53.266;7.920;2023-07-02T06:42:35;20.00;68.60
29663;DHT22;16578;53.266;7.920;2023-07-02T06:45:02;20.00;68.40
29663;DHT22;16578;53.266;7.920;2023-07-02T06:47:27;20.00;68.00
29663;DHT22;16578;53.266;7.920;2023-07-02T06:49:53;20.10;67.80
29663;DHT22;16578;53.266;7.920;2023-07-02T06:52:18;20.10;67.80
29663;DHT22;16578;53.266;7.920;2023-07-02T06:54:44;20.10;67.80
29663;DHT22;16578;53.266;7.920;2023-07-02T06:57:10;20.20;67.40
29663;DHT22;16578;53.266;7.920;2023-07-02T06:59:35;20.20;67.00
29663;DHT22;16578;53.266;7.920;2023-07-02T07:02:02;20.30;66.90
29663;DHT22;16578;53.266;7.920;2023-07-02T07:04:28;20.30;66.60
29663;DHT22;16578;53.266;7.920;2023-07-02T07:06:53;20.30;66.40
29663;DHT22;16578;53.266;7.920;2023-07-02T07:09:21;20.30;66.20
29663;DHT22;16578;53.266;7.920;2023-07-02T07:11:46;20.40;66.50
29663;DHT22;16578;53.266;7.920;2023-07-02T07:14:12;20.40;66.50
29663;DHT22;16578;53.266;7.920;2023-07-02T07:16:37;20.50;66.30
29663;DHT22;16578;53.266;7.920;2023-07-02T07:19:03;20.50;65.80
29663;DHT22;16578;53.266;7.920;2023-07-02T07:21:29;20.50;65.70
29663;DHT22;16578;53.266;7.920;2023-07-02T07:23:54;20.50;65.60
29663;DHT22;16578;53.266;7.920;2023-07-02T07:26:20;20.50;65.40
29663;DHT22;16578;53.266;7.920;2023-07-02T07:28:45;20.60;65.30
29663;DHT22;16578;53.266;7.920;2023-07-02T07:31:11;20.60;65.30
29663;DHT22;16578;53.266;7.920;2023-07-02T07:33:36;20.70;65.30
29663;DHT22;16578;53.266;7.920;2023-07-02T07:36:02;20.70;65.10
29663;DHT22;16578;53.266;7.920;2023-07-02T07:38:27;20.70;64.60
29663;DHT22;16578;53.266;7.920;2023-07-02T07:40:53;20.80;64.10
29663;DHT22;16578;53.266;7.920;2023-07-02T07:43:18;20.80;63.90
29663;DHT22;16578;53.266;7.920;2023-07-02T07:45:44;20.90;64.40
29663;DHT22;16578;53.266;7.920;2023-07-02T07:48:09;20.90;64.10
29663;DHT22;16578;53.266;7.920;2023-07-02T07:50:35;20.90;63.70
29663;DHT22;16578;53.266;7.920;2023-07-02T07:53:00;20.90;63.20
29663;DHT22;16578;53.266;7.920;2023-07-02T07:55:26;20.90;63.10
29663;DHT22;16578;53.266;7.920;2023-07-02T07:57:52;20.90;62.80
29663;DHT22;16578;53.266;7.920;2023-07-02T08:00:17;20.90;62.40
29663;DHT22;16578;53.266;7.920;2023-07-02T08:02:44;20.90;62.40
29663;DHT22;16578;53.266;7.920;2023-07-02T08:05:10;21.00;62.30
29663;DHT22;16578;53.266;7.920;2023-07-02T08:07:36;21.00;63.00
29663;DHT22;16578;53.266;7.920;2023-07-02T08:10:02;21.10;63.20
29663;DHT22;16578;53.266;7.920;2023-07-02T08:12:30;21.10;62.80
29663;DHT22;16578;53.266;7.920;2023-07-02T08:14:56;21.20;62.30
29663;DHT22;16578;53.266;7.920;2023-07-02T08:17:22;21.20;62.20
29663;DHT22;16578;53.266;7.920;2023-07-02T08:19:47;21.30;61.80
29663;DHT22;16578;53.266;7.920;2023-07-02T08:22:13;21.30;61.60
29663;DHT22;16578;53.266;7.920;2023-07-02T08:24:39;21.30;61.40
29663;DHT22;16578;53.266;7.920;2023-07-02T08:27:04;21.30;61.10
29663;DHT22;16578;53.266;7.920;2023-07-02T08:29:30;21.30;61.50
29663;DHT22;16578;53.266;7.920;2023-07-02T08:31:56;21.30;61.60
29663;DHT22;16578;53.266;7.920;2023-07-02T08:34:22;21.30;61.20
29663;DHT22;16578;53.266;7.920;2023-07-02T08:36:48;21.30;60.90
29663;DHT22;16578;53.266;7.920;2023-07-02T08:39:14;21.30;60.90
29663;DHT22;16578;53.266;7.920;2023-07-02T08:41:46;21.40;61.00
29663;DHT22;16578;53.266;7.920;2023-07-02T08:44:13;21.40;59.90
29663;DHT22;16578;53.266;7.920;2023-07-02T08:46:39;21.50;60.10
29663;DHT22;16578;53.266;7.920;2023-07-02T08:49:06;21.50;60.10
29663;DHT22;16578;53.266;7.920;2023-07-02T08:51:32;21.60;60.00
29663;DHT22;16578;53.266;7.920;2023-07-02T08:53:57;21.60;59.40
29663;DHT22;16578;53.266;7.920;2023-07-02T08:56:23;21.70;59.40
29663;DHT22;16578;53.266;7.920;2023-07-02T08:58:49;21.70;58.90
29663;DHT22;16578;53.266;7.920;2023-07-02T09:01:14;21.80;58.60
29663;DHT22;16578;53.266;7.920;2023-07-02T09:03:41;21.80;58.40
29663;DHT22;16578;53.266;7.920;2023-07-02T09:06:10;21.90;58.90
29663;DHT22;16578;53.266;7.920;2023-07-02T09:08:37;21.90;58.20
29663;DHT22;16578;53.266;7.920;2023-07-02T09:11:12;21.90;58.20
29663;DHT22;16578;53.266;7.920;2023-07-02T09:13:52;22.00;57.90
29663;DHT22;16578;53.266;7.920;2023-07-02T09:16:28;22.00;57.30
29663;DHT22;16578;53.266;7.920;2023-07-02T09:18:58;22.10;57.10
29663;DHT22;16578;53.266;7.920;2023-07-02T09:21:26;22.10;56.70
29663;DHT22;16578;53.266;7.920;2023-07-02T09:23:52;22.20;56.70
29663;DHT22;16578;53.266;7.920;2023-07-02T09:26:22;22.20;56.70
29663;DHT22;16578;53.266;7.920;2023-07-02T09:28:47;22.20;56.60
29663;DHT22;16578;53.266;7.920;2023-07-02T09:31:13;22.30;56.50
29663;DHT22;16578;53.266;7.920;2023-07-02T09:33:38;22.30;56.30
29663;DHT22;16578;53.266;7.920;2023-07-02T09:36:05;22.30;56.10
29663;DHT22;16578;53.266;7.920;2023-07-02T09:38:30;22.30;56.30
29663;DHT22;16578;53.266;7.920;2023-07-02T09:40:56;22.40;56.20
29663;DHT22;16578;53.266;7.920;2023-07-02T09:43:24;22.40;56.00
29663;DHT22;16578;53.266;7.920;2023-07-02T09:45:54;22.40;55.40
29663;DHT22;16578;53.266;7.920;2023-07-02T09:48:24;22.50;55.10
29663;DHT22;16578;53.266;7.920;2023-07-02T09:50:51;22.40;55.30
29663;DHT22;16578;53.266;7.920;2023-07-02T09:53:17;22.40;55.60
29663;DHT22;16578;53.266;7.920;2023-07-02T09:55:43;22.40;55.60
29663;DHT22;16578;53.266;7.920;2023-07-02T09:58:09;22.30;55.40
29663;DHT22;16578;53.266;7.920;2023-07-02T10:00:35;22.30;55.80
29663;DHT22;16578;53.266;7.920;2023-07-02T10:03:01;22.40;55.80
29663;DHT22;16578;53.266;7.920;2023-07-02T10:05:31;22.40;55.50
29663;DHT22;16578;53.266;7.920;2023-07-02T10:07:59;22.40;55.50
29663;DHT22;16578;53.266;7.920;2023-07-02T10:10:36;22.40;55.70
29663;DHT22;16578;53.266;7.920;2023-07-02T10:13:02;22.40;55.70
29663;DHT22;16578;53.266;7.920;2023-07-02T10:15:28;22.50;55.80
29663;DHT22;16578;53.266;7.920;2023-07-02T10:17:55;22.40;55.40
29663;DHT22;16578;53.266;7.920;2023-07-02T10:20:31;22.50;55.80
29663;DHT22;16578;53.266;7.920;2023-07-02T10:22:58;22.50;56.10
29663;DHT22;16578;53.266;7.920;2023-07-02T10:25:28;22.50;56.50
29663;DHT22;16578;53.266;7.920;2023-07-02T10:27:55;22.60;56.40
29663;DHT22;16578;53.266;7.920;2023-07-02T10:30:34;22.70;56.50
29663;DHT22;16578;53.266;7.920;2023-07-02T10:33:26;22.80;56.00
29663;DHT22;16578;53.266;7.920;2023-07-02T10:35:52;22.80;56.40
29663;DHT22;16578;53.266;7.920;2023-07-02T10:38:23;22.80;55.90
29663;DHT22;16578;53.266;7.920;2023-07-02T10:40:56;22.90;55.90
29663;DHT22;16578;53.266;7.920;2023-07-02T10:43:29;22.90;56.20
29663;DHT22;16578;53.266;7.920;2023-07-02T10:45:55;22.90;56.20
29663;DHT22;16578;53.266;7.920;2023-07-02T10:48:21;22.90;56.00
29663;DHT22;16578;53.266;7.920;2023-07-02T10:50:47;23.00;55.80
29663;DHT22;16578;53.266;7.920;2023-07-02T10:53:16;23.00;55.50
29663;DHT22;16578;53.266;7.920;2023-07-02T10:55:42;23.00;55.50
29663;DHT22;16578;53.266;7.920;2023-07-02T10:58:09;23.00;55.90
29663;DHT22;16578;53.266;7.920;2023-07-02T11:00:50;23.00;55.40
29663;DHT22;16578;53.266;7.920;2023-07-02T11:03:23;23.00;55.20
29663;DHT22;16578;53.266;7.920;2023-07-02T11:05:50;23.10;55.50
29663;DHT22;16578;53.266;7.920;2023-07-02T11:08:16;23.10;55.80
29663;DHT22;16578;53.266;7.920;2023-07-02T11:10:42;23.10;56.10
29663;DHT22;16578;53.266;7.920;2023-07-02T11:13:16;23.20;55.90
29663;DHT22;16578;53.266;7.920;2023-07-02T11:15:42;23.20;54.80
29663;DHT22;16578;53.266;7.920;2023-07-02T11:18:15;23.20;54.90
29663;DHT22;16578;53.266;7.920;2023-07-02T11:20:42;23.20;54.80
29663;DHT22;16578;53.266;7.920;2023-07-02T11:23:24;23.20;54.70
29663;DHT22;16578;53.266;7.920;2023-07-02T11:26:00;23.20;54.10
29663;DHT22;16578;53.266;7.920;2023-07-02T11:28:27;23.20;54.00
29663;DHT22;16578;53.266;7.920;2023-07-02T11:30:53;23.20;54.40
29663;DHT22;16578;53.266;7.920;2023-07-02T11:33:20;23.20;54.70
29663;DHT22;16578;53.266;7.920;2023-07-02T11:35:46;23.20;54.60
29663;DHT22;16578;53.266;7.920;2023-07-02T11:38:12;23.20;54.70
29663;DHT22;16578;53.266;7.920;2023-07-02T11:40:38;23.20;54.10
29663;DHT22;16578;53.266;7.920;2023-07-02T11:43:03;23.20;53.60
29663;DHT22;16578;53.266;7.920;2023-07-02T11:45:31;23.20;53.00
29663;DHT22;16578;53.266;7.920;2023-07-02T11:47:56;23.20;53.10
29663;DHT22;16578;53.266;7.920;2023-07-02T11:50:22;23.10;52.90
29663;DHT22;16578;53.266;7.920;2023-07-02T11:52:47;23.10;53.50
29663;DHT22;16578;53.266;7.920;2023-07-02T11:55:13;23.20;52.90
29663;DHT22;16578;53.266;7.920;2023-07-02T11:57:38;23.10;53.10
29663;DHT22;16578;53.266;7.920;2023-07-02T12:00:05;23.20;53.40
29663;DHT22;16578;53.266;7.920;2023-07-02T12:02:30;23.20;53.20
29663;DHT22;16578;53.266;7.920;2023-07-02T12:04:56;23.20;53.10
29663;DHT22;16578;53.266;7.920;2023-07-02T12:07:21;23.20;53.40
29663;DHT22;16578;53.266;7.920;2023-07-02T12:09:47;23.20;53.10
29663;DHT22;16578;53.266;7.920;2023-07-02T12:12:13;23.20;53.00
29663;DHT22;16578;53.266;7.920;2023-07-02T12:14:38;23.20;52.70
29663;DHT22;16578;53.266;7.920;2023-07-02T12:17:07;23.20;52.90
29663;DHT22;16578;53.266;7.920;2023-07-02T12:19:32;23.20;53.00
29663;DHT22;16578;53.266;7.920;2023-07-02T12:21:58;23.20;52.90
29663;DHT22;16578;53.266;7.920;2023-07-02T12:24:23;23.20;52.40
29663;DHT22;16578;53.266;7.920;2023-07-02T12:26:49;23.20;52.20
29663;DHT22;16578;53.266;7.920;2023-07-02T12:29:14;23.20;52.00
29663;DHT22;16578;53.266;7.920;2023-07-02T12:31:40;23.30;52.00
29663;DHT22;16578;53.266;7.920;2023-07-02T12:34:05;23.20;52.20
29663;DHT22;16578;53.266;7.920;2023-07-02T12:36:31;23.20;52.10
29663;DHT22;16578;53.266;7.920;2023-07-02T12:38:56;23.20;51.40
29663;DHT22;16578;53.266;7.920;2023-07-02T12:41:22;23.10;51.30
29663;DHT22;16578;53.266;7.920;2023-07-02T12:43:48;23.10;51.40
29663;DHT22;16578;53.266;7.920;2023-07-02T12:46:13;23.10;51.40
29663;DHT22;16578;53.266;7.920;2023-07-02T12:48:39;23.00;51.40
29663;DHT22;16578;53.266;7.920;2023-07-02T12:51:04;23.00;51.40
29663;DHT22;16578;53.266;7.920;2023-07-02T12:53:30;23.00;51.50
29663;DHT22;16578;53.266;7.920;2023-07-02T12:55:55;23.00;51.50
29663;DHT22;16578;53.266;7.920;2023-07-02T12:58:22;22.90;51.20
29663;DHT22;16578;53.266;7.920;2023-07-02T13:00:47;22.90;51.20
29663;DHT22;16578;53.266;7.920;2023-07-02T13:03:13;22.90;51.30
29663;DHT22;16578;53.266;7.920;2023-07-02T13:05:39;22.90;51.40
29663;DHT22;16578;53.266;7.920;2023-07-02T13:08:05;22.90;51.30
29663;DHT22;16578;53.266;7.920;2023-07-02T13:10:33;22.90;51.20
29663;DHT22;16578;53.266;7.920;2023-07-02T13:12:59;22.90;51.20
29663;DHT22;16578;53.266;7.920;2023-07-02T13:15:25;22.90;51.60
29663;DHT22;16578;53.266;7.920;2023-07-02T13:17:50;22.90;52.20
29663;DHT22;16578;53.266;7.920;2023-07-02T13:20:16;22.90;52.60
29663;DHT22;16578;53.266;7.920;2023-07-02T13:22:42;22.90;52.50
29663;DHT22;16578;53.266;7.920;2023-07-02T13:25:07;22.90;52.50
29663;DHT22;16578;53.266;7.920;2023-07-02T13:27:33;23.00;52.70
29663;DHT22;16578;53.266;7.920;2023-07-02T13:29:59;23.10;52.00
29663;DHT22;16578;53.266;7.920;2023-07-02T13:32:24;23.10;51.50
29663;DHT22;16578;53.266;7.920;2023-07-02T13:34:50;23.10;51.20
29663;DHT22;16578;53.266;7.920;2023-07-02T13:37:16;23.10;51.00
29663;DHT22;16578;53.266;7.920;2023-07-02T13:39:44;23.10;50.80
29663;DHT22;16578;53.266;7.920;2023-07-02T13:42:10;23.10;51.00
29663;DHT22;16578;53.266;7.920;2023-07-02T13:44:36;23.10;51.00
29663;DHT22;16578;53.266;7.920;2023-07-02T13:47:01;23.10;51.30
29663;DHT22;16578;53.266;7.920;2023-07-02T13:49:27;23.00;51.70
29663;DHT22;16578;53.266;7.920;2023-07-02T13:51:53;23.10;51.70
29663;DHT22;16578;53.266;7.920;2023-07-02T13:54:19;23.10;51.50
29663;DHT22;16578;53.266;7.920;2023-07-02T13:56:46;23.10;51.10
29663;DHT22;16578;53.266;7.920;2023-07-02T13:59:11;23.10;50.80
29663;DHT22;16578;53.266;7.920;2023-07-02T14:01:37;23.00;50.90
29663;DHT22;16578;53.266;7.920;2023-07-02T14:04:03;23.00;50.80
29663;DHT22;16578;53.266;7.920;2023-07-02T14:06:29;22.90;50.50
29663;DHT22;16578;53.266;7.920;2023-07-02T14:08:54;22.90;50.20
29663;DHT22;16578;53.266;7.920;2023-07-02T14:11:21;22.80;50.00
29663;DHT22;16578;53.266;7.920;2023-07-02T14:13:47;22.80;50.10
29663;DHT22;16578;53.266;7.920;2023-07-02T14:16:13;22.80;50.40
29663;DHT22;16578;53.266;7.920;2023-07-02T14:18:39;22.80;50.40
29663;DHT22;16578;53.266;7.920;2023-07-02T14:21:04;22.80;50.10
29663;DHT22;16578;53.266;7.920;2023-07-02T14:23:30;22.80;49.90
29663;DHT22;16578;53.266;7.920;2023-07-02T14:25:55;22.80;50.00
29663;DHT22;16578;53.266;7.920;2023-07-02T14:28:21;22.80;49.80
29663;DHT22;16578;53.266;7.920;2023-07-02T14:30:47;22.80;49.70
29663;DHT22;16578;53.266;7.920;2023-07-02T14:33:14;22.90;49.40
29663;DHT22;16578;53.266;7.920;2023-07-02T14:35:39;22.80;49.50
29663;DHT22;16578;53.266;7.920;2023-07-02T14:38:05;22.80;49.60
29663;DHT22;16578;53.266;7.920;2023-07-02T14:40:32;22.80;49.60
29663;DHT22;16578;53.266;7.920;2023-07-02T14:42:57;22.80;49.60
29663;DHT22;16578;53.266;7.920;2023-07-02T14:45:24;22.80;49.60
29663;DHT22;16578;53.266;7.920;2023-07-02T14:47:49;22.80;49.80
29663;DHT22;16578;53.266;7.920;2023-07-02T14:50:15;22.80;49.80
29663;DHT22;16578;53.266;7.920;2023-07-02T14:52:41;22.80;49.80
29663;DHT22;16578;53.266;7.920;2023-07-02T14:55:06;22.80;50.00
29663;DHT22;16578;53.266;7.920;2023-07-02T14:57:32;22.80;50.40
29663;DHT22;16578;53.266;7.920;2023-07-02T14:59:57;22.80;50.40
29663;DHT22;16578;53.266;7.920;2023-07-02T15:02:23;22.80;50.60
29663;DHT22;16578;53.266;7.920;2023-07-02T15:04:49;22.80;50.50
29663;DHT22;16578;53.266;7.920;2023-07-02T15:07:14;22.80;50.50
29663;DHT22;16578;53.266;7.920;2023-07-02T15:09:40;22.80;50.30
29663;DHT22;16578;53.266;7.920;2023-07-02T15:12:05;22.80;50.20
29663;DHT22;16578;53.266;7.920;2023-07-02T15:14:31;22.80;50.30
29663;DHT22;16578;53.266;7.920;2023-07-02T15:16:56;22.80;50.30
29663;DHT22;16578;53.266;7.920;2023-07-02T15:19:22;22.80;50.20
29663;DHT22;16578;53.266;7.920;2023-07-02T15:21:49;22.80;49.30
29663;DHT22;16578;53.266;7.920;2023-07-02T15:24:14;22.80;48.90
29663;DHT22;16578;53.266;7.920;2023-07-02T15:26:42;22.80;48.90